Capitol Logistics 906


EBLG
Liège Airport
Liege, BE
KMIA
Miami International Airport
Miami, US

Route Details

Aircraft Information
Primary: Boeing 747-400BCF
Backup: Boeing 777-200LRF
Route Data
Distance: 4074nm
Sched. Duration: 9h 19m
Avg. Duration: 9h 06m (-13m)
Times Flown: 2
Recm'd Route: Not Available
Planned Altitude: 31,000ft
Origin Wx: EBLG 130220Z VRB02KT CAVOK 13/08 Q1025 NOSIG
Dest. Wx: KMIA 130153Z 21004KT 10SM BKN250 28/23 A2997 RMK AO2 SLP150 T02830228 $
Notes:

Financial History
Total Freight: 273,413lbs
Average Load: 136,707lbs/flt
Fuel Used: 332,660lbs
Avg. Fuel Used: 166,330lbs/flt
Fuel Expense: $369,253
Avg. Fuel Expense: $184,626
Avg. Fuel Cost: $1.11/lbs
Total Gross Income: $1,205,751
Pilot Pay: $378
Total Expenses: $130,325
Total Revenue: $701,819
Average Revenue: $602,875.66